createdAt,value
2023-04-29T00:00:03.448Z,15.63
2023-04-29T00:03:29.163Z,16.80
2023-04-29T00:06:32.623Z,16.13
2023-04-29T00:09:35.210Z,15.30
2023-04-29T00:12:37.404Z,15.93
2023-04-29T00:15:41.982Z,16.07
2023-04-29T00:18:50.661Z,16.00
2023-04-29T00:21:54.828Z,16.93
2023-04-29T00:24:57.147Z,16.23
2023-04-29T00:28:02.477Z,16.80
2023-04-29T00:31:05.614Z,16.83
2023-04-29T00:34:11.048Z,17.30
2023-04-29T00:37:14.131Z,16.63
2023-04-29T00:40:17.460Z,16.20
2023-04-29T00:43:19.968Z,16.37
2023-04-29T00:46:28.280Z,16.47
2023-04-29T00:49:32.885Z,16.27
2023-04-29T00:52:38.232Z,17.17
2023-04-29T00:55:42.240Z,16.87
2023-04-29T00:58:54.615Z,17.90
2023-04-29T01:01:57.036Z,17.70
2023-04-29T01:05:05.811Z,16.70
2023-04-29T01:08:19.048Z,17.10
2023-04-29T01:11:26.221Z,17.17
2023-04-29T01:14:29.523Z,17.33
2023-04-29T01:17:40.332Z,17.00
2023-04-29T01:20:45.304Z,17.07
2023-04-29T01:23:56.457Z,17.30
2023-04-29T01:27:10.788Z,16.90
2023-04-29T01:30:33.405Z,16.73
2023-04-29T01:34:02.964Z,17.10
2023-04-29T01:37:37.899Z,17.33
2023-04-29T01:41:08.029Z,16.70
2023-04-29T01:44:22.503Z,15.87
2023-04-29T01:47:26.196Z,16.97
2023-04-29T01:50:33.003Z,15.93
2023-04-29T01:53:38.963Z,15.67
2023-04-29T01:56:45.133Z,15.80
2023-04-29T01:59:48.357Z,16.63
2023-04-29T02:02:51.151Z,16.30
2023-04-29T02:05:54.538Z,16.40
2023-04-29T02:08:58.147Z,16.53
2023-04-29T02:12:00.857Z,17.67
2023-04-29T02:15:07.165Z,16.40
2023-04-29T02:18:12.579Z,16.77
2023-04-29T02:21:16.094Z,16.43
2023-04-29T02:24:22.546Z,17.00
2023-04-29T02:27:26.878Z,18.50
2023-04-29T02:30:31.642Z,18.00
2023-04-29T02:33:36.874Z,17.27
2023-04-29T02:36:40.541Z,17.17
2023-04-29T02:39:44.570Z,17.73
2023-04-29T02:42:47.453Z,17.13
2023-04-29T02:45:50.955Z,17.93
2023-04-29T02:48:56.713Z,16.50
2023-04-29T02:52:02.178Z,15.77
2023-04-29T02:55:06.358Z,16.57
2023-04-29T02:58:13.147Z,17.60
2023-04-29T03:01:16.185Z,17.27
2023-04-29T03:04:25.426Z,15.90
2023-04-29T03:07:30.577Z,16.40
2023-04-29T03:10:37.188Z,15.53
2023-04-29T03:13:44.173Z,14.97
2023-04-29T03:16:47.239Z,15.20
2023-04-29T03:19:57.317Z,14.90
2023-04-29T03:23:00.991Z,14.97
2023-04-29T03:26:03.224Z,14.90
2023-04-29T03:29:08.799Z,15.00
2023-04-29T03:32:13.597Z,15.13
2023-04-29T03:35:18.884Z,14.87
2023-04-29T03:38:21.203Z,15.77
2023-04-29T03:41:35.856Z,14.17
2023-04-29T03:44:45.792Z,14.53
2023-04-29T03:48:00.228Z,14.80
2023-04-29T03:51:02.659Z,14.60
2023-04-29T03:54:13.079Z,15.00
2023-04-29T03:57:27.567Z,15.60
2023-04-29T04:00:41.187Z,14.50
2023-04-29T04:03:43.522Z,14.23
2023-04-29T04:06:51.203Z,14.93
2023-04-29T04:09:53.529Z,14.17
2023-04-29T04:12:59.905Z,14.07
2023-04-29T04:16:02.420Z,14.83
2023-04-29T04:19:06.202Z,15.10
2023-04-29T04:22:12.963Z,15.17
2023-04-29T04:25:16.517Z,14.60
2023-04-29T04:28:19.803Z,14.23
2023-04-29T04:31:22.879Z,14.53
2023-04-29T04:34:29.960Z,13.83
2023-04-29T04:37:34.898Z,13.67
2023-04-29T04:40:42.637Z,12.93
2023-04-29T04:43:48.760Z,14.57
2023-04-29T04:46:52.215Z,13.37
2023-04-29T04:49:54.732Z,14.23
2023-04-29T04:52:58.424Z,13.60
2023-04-29T04:56:26.162Z,14.00
2023-04-29T04:59:29.238Z,14.70
2023-04-29T05:02:31.684Z,13.70
2023-04-29T05:05:38.245Z,13.83
2023-04-29T05:08:41.417Z,13.40
2023-04-29T05:11:43.982Z,12.90
2023-04-29T05:14:46.568Z,12.93
2023-04-29T05:17:49.163Z,13.20
2023-04-29T05:20:51.333Z,13.37
2023-04-29T05:23:53.599Z,13.40
2023-04-29T05:27:11.255Z,14.17
2023-04-29T05:30:18.532Z,13.40
2023-04-29T05:38:41.833Z,11.80
2023-04-29T05:42:08.768Z,13.00
2023-04-29T05:45:10.914Z,12.37
2023-04-29T05:48:18.994Z,12.35
2023-04-29T05:51:25.174Z,12.25
2023-04-29T05:54:28.565Z,12.48
2023-04-29T05:57:31.036Z,13.00
2023-04-29T06:00:33.630Z,12.35
2023-04-29T06:03:36.613Z,12.30
2023-04-29T06:06:39.644Z,12.80
2023-04-29T06:09:42.885Z,12.95
2023-04-29T06:13:08.647Z,13.25
2023-04-29T06:16:29.800Z,12.63
2023-04-29T06:19:59.068Z,11.32
2023-04-29T06:23:01.032Z,11.15
2023-04-29T06:26:06.846Z,11.65
2023-04-29T06:30:19.731Z,13.13
2023-04-29T06:34:10.363Z,11.70
2023-04-29T06:42:17.470Z,11.50
2023-04-29T07:02:17.239Z,11.55
2023-04-29T07:05:31.800Z,10.68
2023-04-29T07:08:34.070Z,10.95
2023-04-29T07:12:24.127Z,10.77
2023-04-29T07:15:37.178Z,9.90
2023-04-29T07:19:22.582Z,9.23
2023-04-29T07:22:36.840Z,9.85
2023-04-29T07:31:26.215Z,10.55
2023-04-29T07:34:37.494Z,15.15
2023-04-29T07:47:03.497Z,10.57
2023-04-29T07:51:39.834Z,9.93
2023-04-29T08:04:48.350Z,9.73
2023-04-29T08:17:28.245Z,9.60
2023-04-29T08:20:30.604Z,9.85
2023-04-29T08:23:33.136Z,9.75
2023-04-29T08:26:35.548Z,9.77
2023-04-29T08:29:37.666Z,10.20
2023-04-29T08:32:40.002Z,9.40
2023-04-29T08:35:42.602Z,9.52
2023-04-29T08:38:44.987Z,10.15
2023-04-29T08:41:51.224Z,9.02
2023-04-29T08:44:54.287Z,9.43
2023-04-29T08:47:57.444Z,9.07
2023-04-29T08:51:00.712Z,9.80
2023-04-29T08:54:02.822Z,11.25
2023-04-29T08:57:06.277Z,9.57
2023-04-29T09:00:10.684Z,8.68
2023-04-29T09:03:21.118Z,8.98
2023-04-29T09:06:24.011Z,10.55
2023-04-29T09:09:26.785Z,8.85
2023-04-29T09:12:30.444Z,9.13
2023-04-29T09:15:41.381Z,9.57
2023-04-29T09:18:49.081Z,9.38
2023-04-29T09:21:57.737Z,10.25
2023-04-29T09:25:12.869Z,9.70
2023-04-29T09:28:19.342Z,10.02
2023-04-29T09:31:28.325Z,10.32
2023-04-29T09:34:32.553Z,10.68
2023-04-29T09:37:38.143Z,10.07
2023-04-29T09:40:57.575Z,9.57
2023-04-29T09:44:07.898Z,9.32
2023-04-29T09:47:10.855Z,8.95
2023-04-29T09:50:16.489Z,8.65
2023-04-29T09:53:29.807Z,8.38
2023-04-29T09:56:49.670Z,8.10
2023-04-29T09:59:51.920Z,8.32
2023-04-29T10:02:56.286Z,7.53
2023-04-29T10:06:00.217Z,8.55
2023-04-29T10:09:02.319Z,7.95
2023-04-29T10:12:07.440Z,7.40
2023-04-29T10:15:19.123Z,7.70
2023-04-29T10:18:26.333Z,8.48
2023-04-29T10:21:31.309Z,8.00
2023-04-29T10:24:37.737Z,8.48
2023-04-29T10:27:41.473Z,8.55
2023-04-29T10:30:57.159Z,8.90
2023-04-29T10:34:03.613Z,9.20
2023-04-29T10:37:10.307Z,8.50
2023-04-29T10:40:17.964Z,9.07
2023-04-29T10:43:24.988Z,8.48
2023-04-29T10:46:27.329Z,8.93
2023-04-29T10:49:35.155Z,8.35
2023-04-29T10:52:53.151Z,8.18
2023-04-29T10:56:04.834Z,7.90
2023-04-29T10:59:40.261Z,8.90
2023-04-29T11:02:46.014Z,10.15
2023-04-29T11:05:48.188Z,9.90
2023-04-29T11:09:01.927Z,9.75
2023-04-29T11:12:05.932Z,9.20
2023-04-29T11:15:11.113Z,10.40
2023-04-29T11:18:13.857Z,10.63
2023-04-29T11:21:16.219Z,10.15
2023-04-29T11:24:35.149Z,10.88
2023-04-29T11:27:40.712Z,10.30
2023-04-29T11:30:45.498Z,10.23
2023-04-29T11:34:08.271Z,11.05
2023-04-29T11:37:11.064Z,9.93
2023-04-29T11:40:17.509Z,10.65
2023-04-29T11:43:20.831Z,10.27
2023-04-29T11:46:32.283Z,10.32
2023-04-29T11:49:37.500Z,10.93
2023-04-29T11:53:04.905Z,10.88
2023-04-29T11:56:29.989Z,10.68
2023-04-29T11:59:47.535Z,11.18
2023-04-29T12:02:55.678Z,11.40
2023-04-29T12:05:57.998Z,11.75
2023-04-29T12:09:18.653Z,11.07
2023-04-29T12:12:57.294Z,11.45
2023-04-29T12:16:17.348Z,11.07
2023-04-29T12:19:19.600Z,11.35
2023-04-29T12:22:21.749Z,12.32
2023-04-29T12:29:37.404Z,11.70
2023-04-29T12:32:52.195Z,11.75
2023-04-29T12:36:13.264Z,11.75
2023-04-29T12:39:22.870Z,11.55
2023-04-29T12:43:29.378Z,10.27
2023-04-29T12:46:56.295Z,9.75
2023-04-29T12:58:09.350Z,7.63
2023-04-29T13:05:04.892Z,10.48
2023-04-29T13:12:48.524Z,9.75
2023-04-29T13:16:18.040Z,9.05
2023-04-29T13:19:46.834Z,8.32
2023-04-29T13:23:14.469Z,8.90
2023-04-29T13:26:37.475Z,9.05
2023-04-29T13:29:51.640Z,10.82
2023-04-29T13:33:12.401Z,8.57
2023-04-29T13:36:23.927Z,8.13
2023-04-29T13:39:38.241Z,6.60
2023-04-29T13:42:50.471Z,6.45
2023-04-29T13:45:58.723Z,6.47
2023-04-29T13:49:22.506Z,6.82
2023-04-29T13:59:31.661Z,1.20
2023-04-29T14:09:23.829Z,1.10
2023-04-29T14:12:34.058Z,1.80
2023-04-29T14:15:44.114Z,2.72
2023-04-29T14:18:48.952Z,2.63
2023-04-29T14:21:51.799Z,3.10
2023-04-29T14:24:54.378Z,3.42
2023-04-29T14:28:22.170Z,3.80
2023-04-29T14:31:43.442Z,3.80
2023-04-29T14:34:56.034Z,8.90
2023-04-29T14:38:07.999Z,17.25
2023-04-29T14:44:56.917Z,5.45
2023-04-29T14:48:20.185Z,4.80
2023-04-29T14:51:24.108Z,4.78
2023-04-29T14:54:27.214Z,5.40
2023-04-29T14:57:29.971Z,7.78
2023-04-29T15:00:32.035Z,7.22
2023-04-29T15:06:42.282Z,4.85
2023-04-29T15:09:45.820Z,6.10
2023-04-29T15:12:47.828Z,6.68
2023-04-29T15:15:50.900Z,9.23
2023-04-29T15:18:52.852Z,8.60
2023-04-29T15:21:55.131Z,41.40
2023-04-29T15:24:57.090Z,7.70
2023-04-29T15:27:59.514Z,7.00
2023-04-29T15:31:03.796Z,8.48
2023-04-29T15:34:06.600Z,17.20
2023-04-29T15:37:08.555Z,7.07
2023-04-29T15:40:11.285Z,5.85
2023-04-29T15:43:13.290Z,7.05
2023-04-29T15:46:32.467Z,7.57
2023-04-29T15:49:43.005Z,7.80
2023-04-29T15:52:45.921Z,8.55
2023-04-29T15:55:47.911Z,11.75
2023-04-29T15:58:50.364Z,10.82
2023-04-29T16:01:52.457Z,8.85
2023-04-29T16:04:54.875Z,7.32
2023-04-29T16:08:23.719Z,8.15
2023-04-29T16:11:26.393Z,13.77
2023-04-29T16:14:29.193Z,7.35
2023-04-29T16:17:34.620Z,7.30
2023-04-29T16:20:36.763Z,7.60
2023-04-29T16:23:39.022Z,7.22
2023-04-29T16:26:41.469Z,9.88
2023-04-29T16:29:45.274Z,5.90
2023-04-29T16:32:48.018Z,5.32
2023-04-29T16:35:50.423Z,6.13
2023-04-29T16:38:54.975Z,7.55
2023-04-29T16:41:59.546Z,8.10
2023-04-29T16:45:01.750Z,8.30
2023-04-29T16:48:04.378Z,9.27
2023-04-29T16:51:06.560Z,10.30
2023-04-29T16:54:08.906Z,10.47
2023-04-29T16:57:10.828Z,11.53
2023-04-29T17:00:13.372Z,11.43
2023-04-29T17:03:23.233Z,10.93
2023-04-29T17:06:32.314Z,12.07
2023-04-29T17:09:34.504Z,12.17
2023-04-29T17:12:37.016Z,13.10
2023-04-29T17:15:38.926Z,13.20
2023-04-29T17:18:47.141Z,13.83
2023-04-29T17:21:49.629Z,14.10
2023-04-29T17:24:52.200Z,13.30
2023-04-29T17:27:57.151Z,14.53
2023-04-29T17:31:06.417Z,13.83
2023-04-29T17:34:18.809Z,14.57
2023-04-29T17:37:25.765Z,14.23
2023-04-29T17:40:27.937Z,15.83
2023-04-29T17:43:41.941Z,15.83
2023-04-29T17:46:46.723Z,17.67
2023-04-29T17:50:03.071Z,18.83
2023-04-29T17:53:08.250Z,19.50
2023-04-29T17:56:10.794Z,19.93
2023-04-29T17:59:12.789Z,18.60
2023-04-29T18:02:15.169Z,19.90
2023-04-29T18:05:17.329Z,20.75
2023-04-29T18:08:20.212Z,22.43
2023-04-29T18:11:37.609Z,23.03
2023-04-29T18:14:46.273Z,23.40
2023-04-29T18:17:48.579Z,25.10
2023-04-29T18:20:50.947Z,25.33
2023-04-29T18:23:56.027Z,26.30
2023-04-29T18:27:04.587Z,26.60
2023-04-29T18:30:07.720Z,26.13
2023-04-29T18:33:10.045Z,27.03
2023-04-29T18:36:14.120Z,28.87
2023-04-29T18:39:17.017Z,28.33
2023-04-29T18:42:19.007Z,25.83
2023-04-29T18:45:21.230Z,25.53
2023-04-29T18:48:24.029Z,25.30
2023-04-29T18:51:26.412Z,22.37
2023-04-29T18:54:28.418Z,25.97
2023-04-29T18:57:30.844Z,20.63
2023-04-29T19:00:32.805Z,22.10
2023-04-29T19:03:35.495Z,19.90
2023-04-29T19:06:37.871Z,20.17
2023-04-29T19:09:40.242Z,19.23
2023-04-29T19:12:42.256Z,19.97
2023-04-29T19:15:44.633Z,17.67
2023-04-29T19:18:46.815Z,18.40
2023-04-29T19:21:49.127Z,16.80
2023-04-29T19:24:51.135Z,15.27
2023-04-29T19:27:53.702Z,15.93
2023-04-29T19:30:56.074Z,18.83
2023-04-29T19:33:58.334Z,18.30
2023-04-29T19:37:01.092Z,18.37
2023-04-29T19:40:04.127Z,16.67
2023-04-29T19:43:06.237Z,16.03
2023-04-29T19:46:08.749Z,16.77
2023-04-29T19:49:11.861Z,14.93
2023-04-29T19:52:14.270Z,14.67
2023-04-29T19:55:17.309Z,15.57
2023-04-29T19:58:20.094Z,14.43
2023-04-29T20:01:22.275Z,13.70
2023-04-29T20:04:25.467Z,12.90
2023-04-29T20:07:27.453Z,13.30
2023-04-29T20:10:30.185Z,12.80
2023-04-29T20:13:32.278Z,11.97
2023-04-29T20:16:35.690Z,12.07
2023-04-29T20:19:37.780Z,11.90
2023-04-29T20:22:40.104Z,11.93
2023-04-29T20:25:42.290Z,10.30
2023-04-29T20:28:44.672Z,10.63
2023-04-29T20:31:46.825Z,9.87
2023-04-29T20:34:49.314Z,10.03
2023-04-29T20:37:51.386Z,9.27
2023-04-29T20:40:54.337Z,10.57
2023-04-29T20:43:58.663Z,10.17
2023-04-29T20:47:01.154Z,10.63
2023-04-29T20:50:04.701Z,10.67
2023-04-29T20:53:07.172Z,10.33
2023-04-29T20:56:10.525Z,10.03
2023-04-29T20:59:13.274Z,9.77
2023-04-29T21:02:15.593Z,9.93
2023-04-29T21:05:18.002Z,10.77
2023-04-29T21:08:19.933Z,8.50
2023-04-29T21:11:22.343Z,8.83
2023-04-29T21:14:24.288Z,9.00
2023-04-29T21:17:26.754Z,8.67
2023-04-29T21:20:28.818Z,9.30
2023-04-29T21:23:33.436Z,8.53
2023-04-29T21:26:35.555Z,8.80
2023-04-29T21:29:41.012Z,9.10
2023-04-29T21:32:43.102Z,8.07
2023-04-29T21:35:50.218Z,8.60
2023-04-29T21:38:55.678Z,7.97
2023-04-29T21:42:03.063Z,8.07
2023-04-29T21:45:05.893Z,9.23
2023-04-29T21:48:20.552Z,8.87
2023-04-29T21:51:22.869Z,8.50
2023-04-29T21:54:25.103Z,7.90
2023-04-29T21:57:42.702Z,8.00
2023-04-29T22:00:51.231Z,8.63
2023-04-29T22:03:55.020Z,8.80
2023-04-29T22:06:58.811Z,8.47
2023-04-29T22:10:01.053Z,7.83
2023-04-29T22:13:03.306Z,7.83
2023-04-29T22:16:05.705Z,8.40
2023-04-29T22:19:08.578Z,8.27
2023-04-29T22:22:10.658Z,7.93
2023-04-29T22:25:12.927Z,8.80
2023-04-29T22:28:15.311Z,8.80
2023-04-29T22:31:17.566Z,8.10
2023-04-29T22:34:23.269Z,8.20
2023-04-29T22:37:25.717Z,8.60
2023-04-29T22:40:27.711Z,9.67
2023-04-29T22:43:33.091Z,9.20
2023-04-29T22:46:37.759Z,9.97
2023-04-29T22:49:40.992Z,9.57
2023-04-29T22:52:42.965Z,10.63
2023-04-29T22:55:56.319Z,9.87
2023-04-29T22:58:58.388Z,8.67
2023-04-29T23:02:03.190Z,10.57
2023-04-29T23:05:06.085Z,10.80
2023-04-29T23:08:08.646Z,10.27
2023-04-29T23:11:11.989Z,11.03
2023-04-29T23:14:14.261Z,10.80
2023-04-29T23:17:16.263Z,10.10
2023-04-29T23:20:18.617Z,10.17
2023-04-29T23:23:20.560Z,12.00
2023-04-29T23:26:23.372Z,10.93
2023-04-29T23:29:25.324Z,11.50
2023-04-29T23:32:27.725Z,11.67
2023-04-29T23:35:29.834Z,12.40
2023-04-29T23:38:32.101Z,13.07
2023-04-29T23:41:34.235Z,13.47
2023-04-29T23:44:36.491Z,14.30
2023-04-29T23:47:38.465Z,14.30
2023-04-29T23:50:40.847Z,14.47
2023-04-29T23:53:42.821Z,14.73
2023-04-29T23:56:45.206Z,14.87
2023-04-29T23:59:47.407Z,15.50
